Terminal Aerodrome Forecast
Issued by NWS

Current Version | Previous Version | Text Only | Print | Product List | Glossary Off
Versions: 1 2 3 4 5 6 7 8 9 10 11 12 13 14 15 16 17 18 19 20 21 22

547
FTUS41 KPBZ 230643 CCB
TAFHLG
TAF COR
KHLG 230643Z 2307/2406 17010KT P6SM -SHRA OVC050 WS020/20040KT
      TEMPO 2307/2308 VRB15G30KT 3SM TSRA OVC050CB
     FM230900 21010KT P6SM VCSH BKN050
     FM231400 23018G28KT P6SM VCSH BKN035
     FM232100 24015G25KT P6SM VCSH BKN025=

USA.gov is the U.S. government's official web portal to all federal, state and local government web resources and services.